Lake Levels Lake Levels   »   United States   »   Texas
LAKES RIVERS MARINAS NEWS HOUSES EVENTS MAPS
1,681 Lakes:
Lake Store

Lake Levels in Texas, United States

Lake Name Current
Level
Full Pool +/-
Full Pool
Reading
Date - Time
Alan Henry (TX) 2,218.39 2,224.00 -5.61 9/25/2021  7:30 PM
Amistad (TX) 1,070.85 1,117.00 -46.15 9/25/2021  9:15 PM
Amon Carter (TX) 920.31 920.00 0.31 9/25/2021  4:00 PM
Aquilla (TX) 536.68 537.50 -0.82 9/25/2021  4:30 PM
Arlington (TX) 545.47 550.00 -4.53 9/25/2021  12:00 AM
Arrowhead (TX) 924.58 926.00 -1.42 9/25/2021  11:00 PM
Athens (TX) 439.84 440.00 -0.16 9/25/2021  11:30 PM
Austin (TX) 492.09 492.80 -0.71 9/25/2021  10:00 PM
Bardwell (TX) 420.46 421.00 -0.54 9/25/2021  5:30 PM
Belton (TX) 593.00 594.00 -1.00 9/25/2021  7:00 PM
Benbrook (TX) 688.13 694.00 -5.87 9/25/2021  11:00 PM
Bob Sandlin (TX) 336.38 337.50 -1.12 9/25/2021  9:50 AM
Bonham (TX) 562.93 565.00 -2.07 9/25/2021  9:00 PM
Brady Creek (TX) 1,736.15 1,743.00 -6.85 9/25/2021  10:45 PM
Bridgeport (TX) 835.11 836.00 -0.89 9/25/2021  11:00 PM
Brownwood (TX) 1,424.20 1,425.00 -0.80 9/25/2021  9:30 PM
Buchanan (TX) 1,015.30 1,020.50 -5.20 9/25/2021  10:05 AM
Caddo (LA TX) 168.95 168.50 0.45 9/25/2021  8:00 AM
Canyon (TX) 905.63 909.00 -3.37 9/25/2021  6:15 PM
Cedar Creek (TX) 321.16 322.00 -0.84 9/25/2021  2:45 PM
Champion Creek (TX) 2,074.97 2,083.00 -8.03 9/25/2021  10:24 AM
Cherokee (TX) 279.47 280.00 -0.53 9/25/2021  9:45 PM
Choke Canyon (TX) 203.49 220.50 -17.01 9/25/2021  7:30 AM
Cisco (TX) 1,520.36 1,520.00 0.36 9/26/2021  12:30 AM
Coleman (TX) 1,716.88 1,718.00 -1.12 9/25/2021  10:30 PM
Coleto Creek (TX) 97.49 98.28 -0.79 9/25/2021  7:00 PM
Colorado City (TX) 2,065.25 2,070.20 -4.95 9/25/2021  10:24 AM
Conroe (TX) 199.57 201.00 -1.43 9/25/2021  10:30 PM
Corpus Christi (TX) 92.06 94.00 -1.94 9/25/2021  9:34 AM
Cypress Springs (TX) 178.86 378.00 -199.14 9/25/2021  9:50 AM
E. V. Spence (TX) 1,861.41 1,898.00 -36.59 9/25/2021  9:00 PM
Eagle Mountain (TX) 647.77 649.00 -1.23 9/25/2021  10:00 PM
Falcon (TX) 259.36 301.20 -41.84 9/25/2021  10:15 PM
Fork (TX) 401.25 403.00 -1.75 9/25/2021  5:30 PM
Georgetown (TX) 780.75 791.00 -10.25 9/25/2021  5:00 PM
Graham (TX) 1,072.77 1,075.00 -2.23 9/25/2021  8:00 PM
Granbury (TX) 692.22 693.00 -0.78 9/25/2021  11:35 PM
Granger (TX) 503.86 504.00 -0.14 9/25/2021  10:32 PM
Grapevine (TX) 534.44 535.00 -0.56 9/25/2021  11:45 PM
Hords Creek (TX) 1,888.26 1,900.00 -11.74 9/25/2021  5:30 PM
Houston (TX) 42.30 42.40 -0.10 9/25/2021  11:30 PM
Hubbard Creek (TX) 1,182.29 1,183.00 -0.71 9/25/2021  11:15 PM
Hubert M Moss (TX) 713.81 715.00 -1.19 9/25/2021  10:15 PM
Inks (TX) 887.11 886.90 0.21 9/25/2021  5:00 PM
Jacksonville (TX) 421.61 422.00 -0.39 9/25/2021  12:00 AM
JB Thomas (TX) 2,238.86 2,258.00 -19.14 9/25/2021  11:45 PM
Jim Chapman (TX) 438.68 440.00 -1.32 9/25/2021  9:50 AM
Joe Pool (TX) 521.73 522.00 -0.27 9/25/2021  10:00 PM
Kemp (TX) 1,143.88 1,144.00 -0.12 9/25/2021  2:15 PM
Kickapoo (TX) 1,042.13 1,045.00 -2.87 9/25/2021  9:00 PM
Lake O' the Pines (TX) 229.30 228.50 0.80 9/25/2021  9:50 AM
Lavon (TX) 489.01 492.00 -2.99 9/25/2021  11:00 PM
Leon (TX) 1,373.69 9/25/2021  8:30 PM
Lewisville (TX) 521.26 522.00 -0.74 9/25/2021  11:15 PM
Limestone (TX) 361.94 363.00 -1.06 9/25/2021  10:45 PM
Livingston (TX) 130.60 131.00 -0.40 9/25/2021  12:00 AM
Lyndon B. Johnson (TX) 824.74 825.00 -0.26 9/25/2021  10:05 AM
MacKenzie (TX) 3,011.88 3,100.00 -88.12 9/25/2021  7:30 PM
Marble Falls (TX) 736.35 737.00 -0.65 9/25/2021  10:05 AM
Martin Creek (TX) 304.71 306.00 -1.29 9/25/2021  5:30 PM
Medina (TX) 1,021.26 1,062.00 -40.74 9/25/2021  11:00 PM
Meredith (TX) 2,886.42 2,941.00 -54.58 9/25/2021  10:30 PM
Mexia (TX) 447.67 448.30 -0.63 9/25/2021  8:45 PM
Millers Creek (TX) 1,333.37 1,334.00 -0.63 9/25/2021  11:00 PM
Mineral Wells (TX) 863.04 863.00 0.04 9/26/2021  12:30 AM
Mountain Creek (TX) 457.40 457.00 0.40 9/25/2021  8:45 PM
Murvaul (TX) 264.98 265.50 -0.52 9/25/2021  9:50 AM
Nacogdoches (TX) 277.62 279.00 -1.38 9/25/2021  9:50 AM
Natural Dam Salt (TX) 2,447.27 2,457.00 -9.73 9/25/2021  12:00 AM
Navarro Mills (TX) 423.72 424.50 -0.78 9/25/2021  4:00 PM
Nocona (TX) 826.39 827.00 -0.61 9/25/2021  10:00 PM
O. C. Fisher (TX) 1,866.83 1,908.00 -41.17 9/25/2021  8:00 PM
O.H. Ivie (TX) 1,536.54 1,551.50 -14.96 9/25/2021  9:45 PM
Oak Creek (TX) 1,995.44 2,000.00 -4.56 9/25/2021  12:00 AM
Palestine (TX) 344.58 345.00 -0.42 9/25/2021  8:00 PM
Palo Pinto (TX) 866.34 867.00 -0.66 9/25/2021  5:15 PM
Pat Cleburne (TX) 731.67 733.60 -1.93 9/25/2021  6:00 PM
Pat Mayse (TX) 449.75 451.00 -1.25 9/25/2021  9:50 AM
Phantom Hill (TX) 1,635.34 1,635.90 -0.56 9/25/2021  11:30 PM
Possum Kingdom (TX) 998.40 1,000.00 -1.60 9/25/2021  10:30 PM
Proctor (TX) 1,160.98 1,162.00 -1.02 9/25/2021  11:30 PM
Ray Hubbard (TX) 434.03 435.50 -1.47 9/25/2021  11:45 PM
Ray Roberts (TX) 632.08 632.50 -0.42 9/25/2021  5:15 PM
Red Bluff (TX) 2,821.69 2,827.13 -5.44 9/25/2021  11:15 PM
Richland Chambers (TX) 313.81 315.00 -1.19 9/25/2021  3:45 PM
Sam Rayburn (TX) 162.80 164.40 -1.60 9/25/2021  10:46 PM
Somerville (TX) 237.65 238.00 -0.35 9/25/2021  11:00 PM
Squaw Creek (TX) 775.19 775.00 0.19 9/25/2021  10:00 PM
Stamford (TX) 1,416.47 1,417.00 -0.53 9/25/2021  11:30 PM
Steinhagen Reservoir (TX) 82.89 82.40 0.49 9/25/2021  11:00 PM
Stillhouse Hollow (TX) 621.38 622.00 -0.62 9/25/2021  10:00 PM
Striker (TX) 292.61 292.93 -0.32 9/25/2021  8:45 PM
Tawakoni (TX) 436.59 437.50 -0.91 9/25/2021  9:15 PM
Texana (TX) 42.88 44.00 -1.12 9/25/2021  8:00 PM
Texoma (TX) 614.93 617.00 -2.07 9/25/2021  8:00 PM
Toledo Bend (TX LA) 167.90 172.00 -4.10 9/25/2021  11:30 PM
Travis (TX) 662.74 681.00 -18.26 9/25/2021  10:00 PM
Twin Buttes (TX) 1,928.31 1,940.00 -11.69 9/25/2021  12:00 AM
Tyler (TX) 374.97 375.50 -0.53 9/25/2021  9:50 AM
Waco (TX) 461.48 462.00 -0.52 9/25/2021  10:15 PM
Waxahachie (TX) 529.58 9/25/2021  12:00 AM
Weatherford (TX) 894.36 896.00 -1.64 9/25/2021  6:45 PM
White River (TX) 2,352.05 9/25/2021  11:15 PM
Whitney (TX) 531.22 533.00 -1.78 9/25/2021  7:15 PM
Worth (TX) 592.81 594.00 -1.19 9/25/2021  9:00 PM
Wright Patman (TX) 225.12 220.60 4.52 9/25/2021  9:50 AM


CURRENT DAILY STREAMFLOW CONDITIONS
High
90th percentile
75th - 89th percentile
25th - 74th percentile
10th - 24th percentile
10th percentile
Low
Not ranked

The colored dots on this map depict streamflow conditions as a percentile, which is computed from the period of record for the current day of the year. Only stations with at least 30 years of record are used. The gray circles indicate other stations that were not ranked in percentiles either because they have fewer than 30 years of record or because they report parameters other than streamflow. Some stations, for example, measure stage only.
U.S. Daily Streamflow Conditions



U.S. Drought Monitor